createdAt,value
2023-05-15T00:00:12.706Z,96832.53
2023-05-15T00:02:39.169Z,96839.25
2023-05-15T00:05:05.602Z,96830.31
2023-05-15T00:07:31.972Z,96830.91
2023-05-15T00:09:58.356Z,96823.00
2023-05-15T00:12:24.698Z,96826.56
2023-05-15T00:14:51.055Z,96822.28
2023-05-15T00:17:17.399Z,96816.03
2023-05-15T00:19:43.722Z,96816.28
2023-05-15T00:22:10.057Z,96817.38
2023-05-15T00:24:36.423Z,96812.41
2023-05-15T00:27:02.810Z,96813.00
2023-05-15T00:29:29.196Z,96805.94
2023-05-15T00:31:55.588Z,96805.94
2023-05-15T00:34:21.976Z,96805.78
2023-05-15T00:36:48.336Z,96814.41
2023-05-15T00:39:14.650Z,96808.72
2023-05-15T00:41:41.016Z,96801.66
2023-05-15T00:44:07.371Z,96806.84
2023-05-15T00:46:33.847Z,96805.78
2023-05-15T00:49:00.226Z,96798.44
2023-05-15T00:51:26.609Z,96796.25
2023-05-15T00:53:52.960Z,96804.63
2023-05-15T00:56:19.295Z,96806.28
2023-05-15T00:58:45.665Z,96810.34
2023-05-15T01:01:12.027Z,96806.59
2023-05-15T01:03:38.385Z,96802.31
2023-05-15T01:06:04.730Z,96803.38
2023-05-15T01:08:31.072Z,96809.63
2023-05-15T01:10:57.456Z,96809.88
2023-05-15T01:13:23.812Z,96807.09
2023-05-15T01:15:50.327Z,96800.75
2023-05-15T01:18:16.855Z,96809.63
2023-05-15T01:20:43.357Z,96808.47
2023-05-15T01:23:09.722Z,96808.53
2023-05-15T01:25:36.059Z,96810.13
2023-05-15T01:28:02.377Z,96807.06
2023-05-15T01:30:28.720Z,96809.53
2023-05-15T01:32:55.103Z,96806.47
2023-05-15T01:35:21.483Z,96804.13
2023-05-15T01:37:47.836Z,96809.19
2023-05-15T01:40:14.177Z,96804.59
2023-05-15T01:42:40.684Z,96808.09
2023-05-15T01:45:07.006Z,96806.28
2023-05-15T01:47:33.374Z,96810.59
2023-05-15T01:49:59.747Z,96811.44
2023-05-15T01:52:26.135Z,96812.84
2023-05-15T01:54:52.505Z,96820.38
2023-05-15T01:57:18.834Z,96813.91
2023-05-15T01:59:45.177Z,96815.88
2023-05-15T02:02:11.586Z,96810.59
2023-05-15T02:04:37.992Z,96810.38
2023-05-15T02:07:04.389Z,96820.97
2023-05-15T02:09:30.744Z,96819.31
2023-05-15T02:11:57.068Z,96813.09
2023-05-15T02:14:23.405Z,96815.66
2023-05-15T02:16:49.799Z,96813.47
2023-05-15T02:19:16.274Z,96810.75
2023-05-15T02:21:42.696Z,96813.22
2023-05-15T02:24:09.028Z,96808.59
2023-05-15T02:26:35.362Z,96811.06
2023-05-15T02:29:01.695Z,96806.94
2023-05-15T02:31:28.040Z,96814.25
2023-05-15T02:33:54.433Z,96806.63
2023-05-15T02:36:20.822Z,96808.19
2023-05-15T02:38:47.196Z,96810.91
2023-05-15T02:41:13.546Z,96809.75
2023-05-15T02:43:39.874Z,96811.03
2023-05-15T02:46:06.273Z,96806.72
2023-05-15T02:48:32.658Z,96814.84
2023-05-15T02:50:59.021Z,96814.59
2023-05-15T02:53:25.377Z,96816.22
2023-05-15T02:55:51.778Z,96816.00
2023-05-15T02:58:18.111Z,96815.75
2023-05-15T03:00:44.449Z,96812.19
2023-05-15T03:03:10.826Z,96806.78
2023-05-15T03:05:37.167Z,96804.91
2023-05-15T03:08:03.549Z,96805.97
2023-05-15T03:10:29.952Z,96810.34
2023-05-15T03:12:56.289Z,96810.09
2023-05-15T03:15:22.902Z,96813.59
2023-05-15T03:17:49.453Z,96812.78
2023-05-15T03:20:15.849Z,96806.97
2023-05-15T03:22:42.237Z,96804.50
2023-05-15T03:25:08.602Z,96807.09
2023-05-15T03:27:34.943Z,96800.38
2023-05-15T03:30:01.271Z,96800.63
2023-05-15T03:32:27.667Z,96806.19
2023-05-15T03:34:54.025Z,96811.84
2023-05-15T03:37:20.342Z,96811.03
2023-05-15T03:39:46.711Z,96799.13
2023-05-15T03:42:13.044Z,96796.41
2023-05-15T03:44:39.381Z,96801.34
2023-05-15T03:47:06.396Z,96807.84
2023-05-15T03:49:32.726Z,96794.78
2023-05-15T03:51:59.053Z,96801.59
2023-05-15T03:54:25.438Z,96809.47
2023-05-15T03:56:51.747Z,96803.97
2023-05-15T03:59:18.088Z,96802.06
2023-05-15T04:01:55.715Z,96804.47
2023-05-15T04:04:29.680Z,96801.75
2023-05-15T04:06:56.072Z,96802.00
2023-05-15T04:09:22.416Z,96808.47
2023-05-15T04:11:48.757Z,96801.66
2023-05-15T04:14:15.116Z,96807.22
2023-05-15T04:16:41.490Z,96808.88
2023-05-15T04:19:07.971Z,96803.31
2023-05-15T04:21:34.348Z,96800.44
2023-05-15T04:24:00.713Z,96801.84
2023-05-15T04:26:27.104Z,96797.00
2023-05-15T04:29:03.563Z,96798.88
2023-05-15T04:31:31.031Z,96798.38
2023-05-15T04:33:57.430Z,96802.19
2023-05-15T04:36:23.840Z,96804.47
2023-05-15T04:38:50.203Z,96804.28
2023-05-15T04:41:16.532Z,96810.06
2023-05-15T04:43:43.011Z,96807.00
2023-05-15T04:46:09.403Z,96814.16
2023-05-15T04:48:35.873Z,96810.38
2023-05-15T04:51:02.230Z,96807.09
2023-05-15T04:53:28.571Z,96812.75
2023-05-15T04:55:54.904Z,96810.06
2023-05-15T04:58:21.243Z,96806.75
2023-05-15T05:00:47.585Z,96812.16
2023-05-15T05:03:14.004Z,96812.16
2023-05-15T05:05:40.438Z,96800.53
2023-05-15T05:08:06.786Z,96803.00
2023-05-15T05:10:33.178Z,96804.16
2023-05-15T05:12:59.526Z,96803.09
2023-05-15T05:15:26.106Z,96806.47
2023-05-15T05:17:52.791Z,96809.25
2023-05-15T05:20:19.154Z,96812.53
2023-05-15T05:22:45.482Z,96810.91
2023-05-15T05:25:11.834Z,96814.19
2023-05-15T05:27:38.185Z,96814.25
2023-05-15T05:30:04.587Z,96814.63
2023-05-15T05:32:31.004Z,96817.66
2023-05-15T05:34:57.425Z,96814.41
2023-05-15T05:37:23.775Z,96818.94
2023-05-15T05:39:50.104Z,96821.91
2023-05-15T05:42:16.534Z,96821.34
2023-05-15T05:44:42.889Z,96828.06
2023-05-15T05:47:09.524Z,96837.50
2023-05-15T05:49:35.960Z,96843.41
2023-05-15T05:52:02.370Z,96851.22
2023-05-15T05:54:28.772Z,96844.97
2023-05-15T05:56:55.129Z,96832.28
2023-05-15T05:59:21.481Z,96832.88
2023-05-15T06:01:47.864Z,96835.19
2023-05-15T06:04:15.604Z,96840.03
2023-05-15T06:06:42.585Z,96840.84
2023-05-15T06:09:08.938Z,96838.72
2023-05-15T06:11:35.261Z,96841.50
2023-05-15T06:14:01.616Z,96839.72
2023-05-15T06:16:27.991Z,96833.81
2023-05-15T06:18:54.380Z,96845.47
2023-05-15T06:21:20.743Z,96846.03
2023-05-15T06:23:47.067Z,96841.56
2023-05-15T06:26:13.408Z,96842.16
2023-05-15T06:28:39.864Z,96837.97
2023-05-15T06:31:06.316Z,96832.63
2023-05-15T06:33:32.743Z,96838.72
2023-05-15T06:35:59.108Z,96831.56
2023-05-15T06:38:25.493Z,96830.72
2023-05-15T06:40:51.898Z,96822.59
2023-05-15T06:43:18.371Z,96834.34
2023-05-15T06:45:44.760Z,96832.63
2023-05-15T06:48:11.120Z,96828.91
2023-05-15T06:50:37.552Z,96827.28
2023-05-15T06:53:03.931Z,96833.59
2023-05-15T06:55:30.293Z,96824.41
2023-05-15T06:57:56.658Z,96828.78
2023-05-15T07:00:23.048Z,96823.19
2023-05-15T07:02:49.446Z,96818.56
2023-05-15T07:05:15.879Z,96818.72
2023-05-15T07:07:42.282Z,96823.41
2023-05-15T07:10:08.604Z,96812.75
2023-05-15T07:12:34.940Z,96817.16
2023-05-15T07:15:01.295Z,96821.38
2023-05-15T07:17:27.728Z,96818.81
2023-05-15T07:19:54.102Z,96816.75
2023-05-15T07:22:20.526Z,96823.22
2023-05-15T07:24:46.944Z,96820.75
2023-05-15T07:27:13.247Z,96829.16
2023-05-15T07:29:39.584Z,96825.78
2023-05-15T07:32:06.024Z,96827.00
2023-05-15T07:34:32.433Z,96836.41
2023-05-15T07:36:58.826Z,96834.69
2023-05-15T07:39:25.322Z,96827.63
2023-05-15T07:41:51.694Z,96828.38
2023-05-15T07:44:18.038Z,96829.97
2023-05-15T07:46:44.475Z,96833.28
2023-05-15T07:49:10.805Z,96838.13
2023-05-15T07:51:37.126Z,96835.50
2023-05-15T07:54:03.455Z,96823.75
2023-05-15T07:56:29.796Z,96823.38
2023-05-15T07:58:56.179Z,96814.28
2023-05-15T08:01:22.563Z,96812.13
2023-05-15T08:03:49.032Z,96814.34
2023-05-15T08:06:15.453Z,96803.47
2023-05-15T08:08:41.777Z,96810.06
2023-05-15T08:11:08.117Z,96818.13
2023-05-15T08:13:34.496Z,96808.00
2023-05-15T08:16:00.920Z,96810.97
2023-05-15T08:18:27.352Z,96805.56
2023-05-15T08:20:53.738Z,96807.31
2023-05-15T08:23:20.087Z,96807.72
2023-05-15T08:25:46.484Z,96805.69
2023-05-15T08:28:12.856Z,96798.03
2023-05-15T08:30:39.207Z,96798.16
2023-05-15T08:33:05.610Z,96808.75
2023-05-15T08:35:32.056Z,96801.22
2023-05-15T08:37:58.429Z,96806.66
2023-05-15T08:40:38.306Z,96809.44
2023-05-15T08:43:05.695Z,96806.94
2023-05-15T08:45:32.034Z,96804.31
2023-05-15T08:47:58.594Z,96804.13
2023-05-15T08:50:25.004Z,96792.47
2023-05-15T08:52:51.340Z,96789.84
2023-05-15T08:55:17.719Z,96791.28
2023-05-15T08:57:44.138Z,96788.31
2023-05-15T09:00:10.476Z,96782.38
2023-05-15T09:02:36.871Z,96789.13
2023-05-15T09:05:03.239Z,96785.09
2023-05-15T09:07:29.596Z,96784.53
2023-05-15T09:09:55.949Z,96785.59
2023-05-15T09:12:22.323Z,96774.88
2023-05-15T09:14:48.683Z,96777.84
2023-05-15T09:17:15.118Z,96780.81
2023-05-15T09:19:41.564Z,96765.06
2023-05-15T09:22:07.889Z,96768.03
2023-05-15T09:24:34.317Z,96764.88
2023-05-15T09:27:00.666Z,96758.63
2023-05-15T09:29:27.031Z,96758.63
2023-05-15T09:31:53.424Z,96758.88
2023-05-15T09:34:19.827Z,96758.94
2023-05-15T09:36:46.185Z,96770.03
2023-05-15T09:39:12.539Z,96760.53
2023-05-15T09:41:38.926Z,96762.75
2023-05-15T09:44:05.269Z,96763.94
2023-05-15T09:46:31.766Z,96756.56
2023-05-15T09:48:58.201Z,96760.38
2023-05-15T09:51:24.596Z,96761.50
2023-05-15T09:53:50.983Z,96758.91
2023-05-15T09:56:17.315Z,96755.03
2023-05-15T09:58:43.666Z,96758.56
2023-05-15T10:01:10.024Z,96758.91
2023-05-15T10:03:36.371Z,96764.66
2023-05-15T10:06:02.735Z,96763.09
2023-05-15T10:08:29.161Z,96764.78
2023-05-15T10:10:55.498Z,96757.69
2023-05-15T10:13:21.905Z,96746.13
2023-05-15T10:15:48.376Z,96743.56
2023-05-15T10:18:14.805Z,96734.44
2023-05-15T10:20:41.146Z,96727.16
2023-05-15T10:23:07.544Z,96725.91
2023-05-15T10:25:33.908Z,96718.50
2023-05-15T10:28:00.254Z,96719.16
2023-05-15T10:30:26.912Z,96717.50
2023-05-15T10:32:53.447Z,96716.34
2023-05-15T10:35:19.810Z,96718.91
2023-05-15T10:37:46.161Z,96715.88
2023-05-15T10:40:12.488Z,96727.53
2023-05-15T10:42:38.843Z,96713.47
2023-05-15T10:45:05.200Z,96714.97
2023-05-15T10:47:31.684Z,96712.34
2023-05-15T10:49:58.104Z,96712.66
2023-05-15T10:52:24.494Z,96708.97
2023-05-15T10:54:50.852Z,96703.97
2023-05-15T10:57:17.233Z,96701.56
2023-05-15T10:59:43.587Z,96698.66
2023-05-15T11:02:10.085Z,96705.13
2023-05-15T11:04:36.462Z,96699.09
2023-05-15T11:07:02.859Z,96697.75
2023-05-15T11:09:29.205Z,96697.66
2023-05-15T11:11:55.543Z,96694.22
2023-05-15T11:14:21.875Z,96695.44
2023-05-15T11:16:48.276Z,96684.06
2023-05-15T11:19:14.750Z,96690.63
2023-05-15T11:21:41.120Z,96682.47
2023-05-15T11:24:07.475Z,96680.53
2023-05-15T11:26:33.836Z,96685.69
2023-05-15T11:29:00.190Z,96679.75
2023-05-15T11:31:26.636Z,96670.28
2023-05-15T11:33:52.979Z,96677.38
2023-05-15T11:36:19.311Z,96664.97
2023-05-15T11:38:45.647Z,96665.56
2023-05-15T11:41:12.007Z,96664.81
2023-05-15T11:43:38.355Z,96661.34
2023-05-15T11:46:04.775Z,96663.00
2023-05-15T11:48:31.232Z,96650.25
2023-05-15T11:50:57.540Z,96647.06
2023-05-15T11:53:23.864Z,96642.16
2023-05-15T11:55:50.184Z,96645.72
2023-05-15T11:58:16.557Z,96648.47
2023-05-15T12:00:42.920Z,96649.34
2023-05-15T12:03:09.387Z,96638.47
2023-05-15T12:05:35.838Z,96633.84
2023-05-15T12:08:02.174Z,96636.31
2023-05-15T12:10:28.536Z,96635.78
2023-05-15T12:12:54.863Z,96627.09
2023-05-15T12:15:21.189Z,96624.38
2023-05-15T12:17:47.546Z,96619.44
2023-05-15T12:20:13.900Z,96616.22
2023-05-15T12:22:40.259Z,96616.56
2023-05-15T12:25:06.684Z,96611.97
2023-05-15T12:27:33.018Z,96611.19
2023-05-15T12:29:59.478Z,96611.41
2023-05-15T12:32:25.896Z,96613.91
2023-05-15T12:34:52.272Z,96615.56
2023-05-15T12:37:18.617Z,96613.94
2023-05-15T12:39:44.931Z,96610.69
2023-05-15T12:42:11.285Z,96612.00
2023-05-15T12:44:37.646Z,96608.47
2023-05-15T12:47:04.003Z,96614.47
2023-05-15T12:49:30.334Z,96615.56
2023-05-15T12:51:56.682Z,96618.28
2023-05-15T12:54:23.061Z,96621.25
2023-05-15T12:56:49.438Z,96614.72
2023-05-15T12:59:15.803Z,96624.56
2023-05-15T13:01:42.248Z,96624.81
2023-05-15T13:04:08.943Z,96617.47
2023-05-15T13:06:45.662Z,96619.13
2023-05-15T13:09:13.095Z,96626.19
2023-05-15T13:11:41.819Z,96626.75
2023-05-15T13:14:08.140Z,96622.69
2023-05-15T13:16:34.550Z,96622.69
2023-05-15T13:19:00.935Z,96630.28
2023-05-15T13:21:27.383Z,96623.75
2023-05-15T13:23:53.747Z,96631.88
2023-05-15T13:26:20.176Z,96644.59
2023-05-15T13:28:46.503Z,96636.72
2023-05-15T13:31:12.894Z,96642.84
2023-05-15T13:33:39.335Z,96642.81
2023-05-15T13:36:05.683Z,96645.88
2023-05-15T13:38:32.048Z,96645.03
2023-05-15T13:40:58.412Z,96658.69
2023-05-15T13:43:26.553Z,96663.63
2023-05-15T13:45:53.190Z,96672.31
2023-05-15T13:48:19.553Z,96678.06
2023-05-15T13:50:45.906Z,96679.28
2023-05-15T13:53:12.225Z,96686.47
2023-05-15T13:55:38.650Z,96689.81
2023-05-15T13:58:05.025Z,96691.78
2023-05-15T14:00:31.396Z,96685.47
2023-05-15T14:02:57.886Z,96690.75
2023-05-15T14:05:24.247Z,96679.22
2023-05-15T14:07:50.593Z,96696.38
2023-05-15T14:10:16.945Z,96690.81
2023-05-15T14:12:43.300Z,96696.41
2023-05-15T14:15:09.666Z,96700.38
2023-05-15T14:17:36.045Z,96713.41
2023-05-15T14:20:02.424Z,96705.13
2023-05-15T14:22:28.812Z,96694.34
2023-05-15T14:24:55.161Z,96693.13
2023-05-15T14:27:21.533Z,96688.91
2023-05-15T14:29:47.934Z,96689.31
2023-05-15T14:32:14.550Z,96686.66
2023-05-15T14:34:41.073Z,96685.94
2023-05-15T14:37:07.461Z,96684.97
2023-05-15T14:39:33.797Z,96673.34
2023-05-15T14:42:00.174Z,96665.22
2023-05-15T14:44:26.677Z,96660.13
2023-05-15T14:46:53.018Z,96656.38
2023-05-15T14:49:19.450Z,96646.13
2023-05-15T14:51:45.862Z,96648.91
2023-05-15T14:54:12.232Z,96644.88
2023-05-15T14:56:38.588Z,96647.34
2023-05-15T14:59:04.956Z,96639.22
2023-05-15T15:01:31.417Z,96644.94
2023-05-15T15:03:57.946Z,96638.31
2023-05-15T15:06:24.433Z,96643.72
2023-05-15T15:08:50.800Z,96650.22
2023-05-15T15:11:17.226Z,96642.84
2023-05-15T15:13:43.684Z,96644.50
2023-05-15T15:16:10.302Z,96646.97
2023-05-15T15:18:38.059Z,96645.06
2023-05-15T15:21:04.607Z,96639.69
2023-05-15T15:23:31.057Z,96632.44
2023-05-15T15:25:57.475Z,96630.25
2023-05-15T15:28:23.893Z,96627.31
2023-05-15T15:30:50.297Z,96626.25
2023-05-15T15:33:16.718Z,96615.63
2023-05-15T15:35:43.108Z,96630.09
2023-05-15T15:38:09.461Z,96631.16
2023-05-15T15:40:35.855Z,96630.88
2023-05-15T15:43:02.283Z,96633.91
2023-05-15T15:45:28.693Z,96627.38
2023-05-15T15:47:55.105Z,96637.47
2023-05-15T15:50:21.473Z,96646.97
2023-05-15T15:52:47.831Z,96646.94
2023-05-15T15:55:14.212Z,96650.78
2023-05-15T15:57:40.639Z,96657.03
2023-05-15T16:00:07.078Z,96658.94
2023-05-15T16:02:33.555Z,96666.28
2023-05-15T16:04:59.932Z,96657.25
2023-05-15T16:07:26.278Z,96654.81
2023-05-15T16:10:00.406Z,96657.25
2023-05-15T16:12:36.757Z,96656.38
2023-05-15T16:15:20.131Z,96657.13
2023-05-15T16:17:48.611Z,96657.91
2023-05-15T16:20:15.031Z,96666.66
2023-05-15T16:22:41.534Z,96666.41
2023-05-15T16:25:08.063Z,96657.97
2023-05-15T16:27:34.444Z,96661.25
2023-05-15T16:30:00.978Z,96655.00
2023-05-15T16:32:27.442Z,96656.09
2023-05-15T16:34:53.940Z,96661.53
2023-05-15T16:37:20.361Z,96664.44
2023-05-15T16:39:46.760Z,96663.69
2023-05-15T16:42:13.130Z,96659.66
2023-05-15T16:44:39.540Z,96649.09
2023-05-15T16:47:06.000Z,96650.28
2023-05-15T16:49:32.430Z,96653.56
2023-05-15T16:51:59.818Z,96646.84
2023-05-15T16:54:26.196Z,96651.75
2023-05-15T16:56:52.594Z,96644.69
2023-05-15T16:59:19.012Z,96645.53
2023-05-15T17:01:45.453Z,96649.06
2023-05-15T17:04:12.027Z,96642.50
2023-05-15T17:06:38.483Z,96650.66
2023-05-15T17:09:04.848Z,96652.03
2023-05-15T17:11:31.255Z,96640.28
2023-05-15T17:13:57.642Z,96638.84
2023-05-15T17:16:24.029Z,96643.19
2023-05-15T17:18:50.461Z,96647.28
2023-05-15T17:21:16.810Z,96645.66
2023-05-15T17:23:43.204Z,96650.78
2023-05-15T17:26:09.542Z,96647.50
2023-05-15T17:28:38.008Z,96645.03
2023-05-15T17:31:05.442Z,96646.38
2023-05-15T17:33:31.796Z,96656.97
2023-05-15T17:35:58.111Z,96652.88
2023-05-15T17:38:24.463Z,96661.28
2023-05-15T17:40:50.921Z,96662.38
2023-05-15T17:43:17.284Z,96678.13
2023-05-15T17:45:44.008Z,96667.25
2023-05-15T17:48:10.421Z,96677.00
2023-05-15T17:50:37.810Z,96672.31
2023-05-15T17:53:04.272Z,96666.31
2023-05-15T17:55:30.630Z,96681.81
2023-05-15T17:57:57.063Z,96682.56
2023-05-15T18:00:23.489Z,96689.00
2023-05-15T18:02:50.002Z,96692.69
2023-05-15T18:05:16.429Z,96685.81
2023-05-15T18:07:42.798Z,96698.28
2023-05-15T18:10:09.144Z,96691.16
2023-05-15T18:12:35.511Z,96691.41
2023-05-15T18:15:01.856Z,96702.59
2023-05-15T18:17:28.272Z,96708.59
2023-05-15T18:19:54.651Z,96712.13
2023-05-15T18:22:21.017Z,96722.66
2023-05-15T18:24:47.361Z,96713.72
2023-05-15T18:27:15.472Z,96719.22
2023-05-15T18:29:43.276Z,96721.88
2023-05-15T18:32:10.771Z,96722.28
2023-05-15T18:34:37.107Z,96719.56
2023-05-15T18:37:03.451Z,96730.75
2023-05-15T18:39:29.813Z,96725.31
2023-05-15T18:41:56.144Z,96723.59
2023-05-15T18:44:22.494Z,96717.31
2023-05-15T18:46:48.942Z,96712.13
2023-05-15T18:49:15.338Z,96713.94
2023-05-15T18:51:41.728Z,96716.03
2023-05-15T18:54:08.105Z,96716.78
2023-05-15T18:56:34.444Z,96719.72
2023-05-15T18:59:00.794Z,96718.41
2023-05-15T19:01:27.210Z,96729.53
2023-05-15T19:03:53.581Z,96719.41
2023-05-15T19:06:20.284Z,96720.69
2023-05-15T19:08:46.854Z,96720.03
2023-05-15T19:11:13.291Z,96718.56
2023-05-15T19:13:39.635Z,96716.88
2023-05-15T19:16:05.993Z,96717.13
2023-05-15T19:18:32.434Z,96721.16
2023-05-15T19:20:58.826Z,96718.97
2023-05-15T19:23:25.188Z,96714.94
2023-05-15T19:25:51.587Z,96723.34
2023-05-15T19:28:17.982Z,96724.50
2023-05-15T19:30:44.373Z,96731.06
2023-05-15T19:33:10.758Z,96730.56
2023-05-15T19:35:37.805Z,96723.00
2023-05-15T19:38:04.295Z,96733.84
2023-05-15T19:40:30.705Z,96730.88
2023-05-15T19:42:57.143Z,96737.09
2023-05-15T19:45:23.538Z,96740.47
2023-05-15T19:47:49.941Z,96740.47
2023-05-15T19:50:16.389Z,96735.56
2023-05-15T19:52:44.748Z,96740.03
2023-05-15T19:55:11.802Z,96745.72
2023-05-15T19:57:38.248Z,96745.03
2023-05-15T20:00:04.722Z,96743.69
2023-05-15T20:02:31.226Z,96748.81
2023-05-15T20:04:57.620Z,96740.16
2023-05-15T20:07:23.998Z,96745.56
2023-05-15T20:09:50.431Z,96746.09
2023-05-15T20:12:16.767Z,96744.44
2023-05-15T20:14:43.135Z,96742.22
2023-05-15T20:17:09.513Z,96744.38
2023-05-15T20:19:35.892Z,96744.38
2023-05-15T20:22:02.378Z,96744.91
2023-05-15T20:24:28.825Z,96737.56
2023-05-15T20:26:55.172Z,96736.81
2023-05-15T20:29:21.521Z,96734.59
2023-05-15T20:31:47.896Z,96735.41
2023-05-15T20:34:14.310Z,96731.81
2023-05-15T20:36:40.671Z,96729.59
2023-05-15T20:39:07.036Z,96728.41
2023-05-15T20:41:33.394Z,96723.53
2023-05-15T20:43:59.757Z,96730.28
2023-05-15T20:46:28.214Z,96717.13
2023-05-15T20:48:56.060Z,96719.34
2023-05-15T20:51:22.419Z,96722.31
2023-05-15T20:53:48.802Z,96725.56
2023-05-15T20:56:15.194Z,96738.88
2023-05-15T20:58:41.550Z,96734.53
2023-05-15T21:01:07.933Z,96735.09
2023-05-15T21:03:34.305Z,96739.25
2023-05-15T21:06:00.672Z,96739.53
2023-05-15T21:08:27.023Z,96738.63
2023-05-15T21:10:53.354Z,96740.44
2023-05-15T21:13:19.767Z,96741.56
2023-05-15T21:15:46.102Z,96733.25
2023-05-15T21:18:12.516Z,96735.06
2023-05-15T21:20:38.916Z,96731.81
2023-05-15T21:23:05.286Z,96729.91
2023-05-15T21:25:31.598Z,96725.56
2023-05-15T21:27:57.938Z,96724.09
2023-05-15T21:30:24.384Z,96722.13
2023-05-15T21:32:50.881Z,96715.00
2023-05-15T21:35:17.290Z,96722.56
2023-05-15T21:37:43.624Z,96722.56
2023-05-15T21:40:09.958Z,96723.06
2023-05-15T21:42:36.284Z,96723.06
2023-05-15T21:45:05.420Z,96719.19
2023-05-15T21:47:33.095Z,96720.25
2023-05-15T21:49:59.489Z,96726.25
2023-05-15T21:52:25.825Z,96717.53
2023-05-15T21:54:52.166Z,96719.19
2023-05-15T21:57:18.512Z,96715.69
2023-05-15T21:59:44.846Z,96708.09
2023-05-15T22:02:11.274Z,96712.22
2023-05-15T22:04:37.646Z,96705.91
2023-05-15T22:07:04.003Z,96707.22
2023-05-15T22:09:30.355Z,96701.97
2023-05-15T22:11:56.694Z,96700.88
2023-05-15T22:14:23.061Z,96697.38
2023-05-15T22:16:49.445Z,96698.53
2023-05-15T22:19:31.579Z,96696.97
2023-05-15T22:21:58.890Z,96690.19
2023-05-15T22:24:25.262Z,96691.53
2023-05-15T22:26:51.615Z,96686.41
2023-05-15T22:29:17.945Z,96683.53
2023-05-15T22:31:44.339Z,96692.47
2023-05-15T22:34:10.748Z,96692.22
2023-05-15T22:36:37.101Z,96682.47
2023-05-15T22:39:03.434Z,96686.50
2023-05-15T22:41:29.780Z,96679.25
2023-05-15T22:43:56.098Z,96685.25
2023-05-15T22:46:22.559Z,96679.31
2023-05-15T22:48:48.994Z,96675.53
2023-05-15T22:51:15.336Z,96673.16
2023-05-15T22:53:41.689Z,96668.00
2023-05-15T22:56:08.069Z,96666.84
2023-05-15T22:58:34.389Z,96672.28
2023-05-15T23:01:00.789Z,96663.00
2023-05-15T23:03:27.235Z,96669.47
2023-05-15T23:05:53.597Z,96671.94
2023-05-15T23:08:21.049Z,96664.06
2023-05-15T23:10:47.373Z,96667.28
2023-05-15T23:13:13.708Z,96670.25
2023-05-15T23:15:40.136Z,96662.63
2023-05-15T23:18:06.515Z,96663.94
2023-05-15T23:20:32.861Z,96661.13
2023-05-15T23:22:59.193Z,96661.72
2023-05-15T23:25:25.549Z,96672.31
2023-05-15T23:27:51.878Z,96669.59
2023-05-15T23:30:18.221Z,96666.63
2023-05-15T23:32:44.554Z,96670.41
2023-05-15T23:35:10.938Z,96685.66
2023-05-15T23:37:37.257Z,96683.78
2023-05-15T23:40:03.611Z,96678.94
2023-05-15T23:42:29.944Z,96674.91
2023-05-15T23:44:56.293Z,96673.25
2023-05-15T23:47:22.627Z,96677.06
2023-05-15T23:49:49.003Z,96674.91
2023-05-15T23:52:15.374Z,96677.09
2023-05-15T23:54:41.728Z,96671.13
2023-05-15T23:57:08.077Z,96667.53
2023-05-15T23:59:34.410Z,96667.84
